sensor_id;sensor_type;location;lat;lon;timestamp;P1;durP1;ratioP1;P2;durP2;ratioP2
46723;SDS011;32463;48.298;11.620;2023-05-17T00:01:23;5.07;;;1.95;;
46723;SDS011;32463;48.298;11.620;2023-05-17T00:03:49;8.57;;;2.28;;
46723;SDS011;32463;48.298;11.620;2023-05-17T00:06:18;7.88;;;1.70;;
46723;SDS011;32463;48.298;11.620;2023-05-17T00:08:45;12.52;;;2.80;;
46723;SDS011;32463;48.298;11.620;2023-05-17T00:11:11;5.68;;;2.00;;
46723;SDS011;32463;48.298;11.620;2023-05-17T00:13:38;6.65;;;2.00;;
46723;SDS011;32463;48.298;11.620;2023-05-17T00:16:05;6.40;;;1.70;;
46723;SDS011;32463;48.298;11.620;2023-05-17T00:18:32;4.50;;;2.08;;
46723;SDS011;32463;48.298;11.620;2023-05-17T00:20:58;6.20;;;1.80;;
46723;SDS011;32463;48.298;11.620;2023-05-17T00:23:25;6.47;;;2.15;;
46723;SDS011;32463;48.298;11.620;2023-05-17T00:25:51;7.82;;;2.13;;
46723;SDS011;32463;48.298;11.620;2023-05-17T00:28:18;9.45;;;2.40;;
46723;SDS011;32463;48.298;11.620;2023-05-17T00:30:45;10.23;;;2.20;;
46723;SDS011;32463;48.298;11.620;2023-05-17T00:33:11;11.43;;;2.20;;
46723;SDS011;32463;48.298;11.620;2023-05-17T00:35:37;9.40;;;1.90;;
46723;SDS011;32463;48.298;11.620;2023-05-17T00:38:04;6.10;;;2.00;;
46723;SDS011;32463;48.298;11.620;2023-05-17T00:40:31;5.45;;;1.95;;
46723;SDS011;32463;48.298;11.620;2023-05-17T00:42:57;5.78;;;1.65;;
46723;SDS011;32463;48.298;11.620;2023-05-17T00:45:24;5.78;;;1.88;;
46723;SDS011;32463;48.298;11.620;2023-05-17T00:47:50;4.47;;;1.90;;
46723;SDS011;32463;48.298;11.620;2023-05-17T00:50:17;6.82;;;1.88;;
46723;SDS011;32463;48.298;11.620;2023-05-17T00:52:43;7.60;;;2.20;;
46723;SDS011;32463;48.298;11.620;2023-05-17T00:55:11;5.18;;;1.90;;
46723;SDS011;32463;48.298;11.620;2023-05-17T00:57:38;8.20;;;2.00;;
46723;SDS011;32463;48.298;11.620;2023-05-17T01:00:04;4.97;;;1.73;;
46723;SDS011;32463;48.298;11.620;2023-05-17T01:02:32;6.45;;;2.25;;
46723;SDS011;32463;48.298;11.620;2023-05-17T01:04:59;4.30;;;1.67;;
46723;SDS011;32463;48.298;11.620;2023-05-17T01:07:25;5.20;;;2.22;;
46723;SDS011;32463;48.298;11.620;2023-05-17T01:09:52;7.07;;;2.13;;
46723;SDS011;32463;48.298;11.620;2023-05-17T01:17:51;9.27;;;2.00;;
46723;SDS011;32463;48.298;11.620;2023-05-17T01:20:25;5.70;;;2.10;;
46723;SDS011;32463;48.298;11.620;2023-05-17T01:28:32;6.20;;;2.10;;
46723;SDS011;32463;48.298;11.620;2023-05-17T01:31:00;8.18;;;2.00;;
46723;SDS011;32463;48.298;11.620;2023-05-17T01:33:28;6.85;;;2.30;;
46723;SDS011;32463;48.298;11.620;2023-05-17T01:35:55;4.18;;;2.22;;
46723;SDS011;32463;48.298;11.620;2023-05-17T01:38:21;7.68;;;2.33;;
46723;SDS011;32463;48.298;11.620;2023-05-17T01:40:54;7.70;;;2.53;;
46723;SDS011;32463;48.298;11.620;2023-05-17T01:43:33;7.75;;;2.42;;
46723;SDS011;32463;48.298;11.620;2023-05-17T01:46:25;4.85;;;2.20;;
46723;SDS011;32463;48.298;11.620;2023-05-17T01:51:27;4.85;;;2.20;;
46723;SDS011;32463;48.298;11.620;2023-05-17T01:54:03;10.75;;;2.75;;
46723;SDS011;32463;48.298;11.620;2023-05-17T01:56:35;6.00;;;2.65;;
46723;SDS011;32463;48.298;11.620;2023-05-17T02:01:36;8.00;;;2.42;;
46723;SDS011;32463;48.298;11.620;2023-05-17T02:04:04;7.75;;;2.75;;
46723;SDS011;32463;48.298;11.620;2023-05-17T02:06:30;10.50;;;2.60;;
46723;SDS011;32463;48.298;11.620;2023-05-17T02:08:57;8.45;;;2.80;;
46723;SDS011;32463;48.298;11.620;2023-05-17T02:11:26;6.15;;;2.50;;
46723;SDS011;32463;48.298;11.620;2023-05-17T02:13:52;7.82;;;2.75;;
46723;SDS011;32463;48.298;11.620;2023-05-17T02:16:19;7.35;;;2.90;;
46723;SDS011;32463;48.298;11.620;2023-05-17T02:18:46;6.40;;;2.50;;
46723;SDS011;32463;48.298;11.620;2023-05-17T02:21:31;7.53;;;2.70;;
46723;SDS011;32463;48.298;11.620;2023-05-17T02:23:57;7.38;;;2.25;;
46723;SDS011;32463;48.298;11.620;2023-05-17T02:26:24;7.38;;;2.75;;
46723;SDS011;32463;48.298;11.620;2023-05-17T02:28:51;6.97;;;2.58;;
46723;SDS011;32463;48.298;11.620;2023-05-17T02:31:18;10.00;;;2.38;;
46723;SDS011;32463;48.298;11.620;2023-05-17T02:33:48;8.55;;;2.33;;
46723;SDS011;32463;48.298;11.620;2023-05-17T02:36:14;7.95;;;2.72;;
46723;SDS011;32463;48.298;11.620;2023-05-17T02:38:41;7.65;;;2.53;;
46723;SDS011;32463;48.298;11.620;2023-05-17T02:41:07;5.53;;;2.28;;
46723;SDS011;32463;48.298;11.620;2023-05-17T02:43:34;4.68;;;2.47;;
46723;SDS011;32463;48.298;11.620;2023-05-17T02:46:00;8.57;;;2.40;;
46723;SDS011;32463;48.298;11.620;2023-05-17T02:48:27;8.98;;;2.63;;
46723;SDS011;32463;48.298;11.620;2023-05-17T02:50:53;9.73;;;2.50;;
46723;SDS011;32463;48.298;11.620;2023-05-17T02:53:20;5.47;;;2.25;;
46723;SDS011;32463;48.298;11.620;2023-05-17T02:55:46;6.30;;;2.20;;
46723;SDS011;32463;48.298;11.620;2023-05-17T02:58:12;8.05;;;2.13;;
46723;SDS011;32463;48.298;11.620;2023-05-17T03:00:43;5.30;;;2.08;;
46723;SDS011;32463;48.298;11.620;2023-05-17T03:03:10;8.18;;;2.25;;
46723;SDS011;32463;48.298;11.620;2023-05-17T03:05:37;9.43;;;2.20;;
46723;SDS011;32463;48.298;11.620;2023-05-17T03:08:03;4.15;;;2.30;;
46723;SDS011;32463;48.298;11.620;2023-05-17T03:10:30;5.70;;;2.47;;
46723;SDS011;32463;48.298;11.620;2023-05-17T03:12:56;7.88;;;2.50;;
46723;SDS011;32463;48.298;11.620;2023-05-17T03:15:23;6.03;;;2.10;;
46723;SDS011;32463;48.298;11.620;2023-05-17T03:17:50;5.20;;;1.85;;
46723;SDS011;32463;48.298;11.620;2023-05-17T03:20:17;6.25;;;2.05;;
46723;SDS011;32463;48.298;11.620;2023-05-17T03:22:44;6.90;;;2.25;;
46723;SDS011;32463;48.298;11.620;2023-05-17T03:25:10;6.82;;;2.00;;
46723;SDS011;32463;48.298;11.620;2023-05-17T03:27:36;5.50;;;2.10;;
46723;SDS011;32463;48.298;11.620;2023-05-17T03:30:03;6.53;;;2.00;;
46723;SDS011;32463;48.298;11.620;2023-05-17T03:32:30;7.18;;;2.03;;
46723;SDS011;32463;48.298;11.620;2023-05-17T03:34:56;6.25;;;2.08;;
46723;SDS011;32463;48.298;11.620;2023-05-17T03:37:22;4.88;;;2.00;;
46723;SDS011;32463;48.298;11.620;2023-05-17T03:39:50;8.73;;;1.83;;
46723;SDS011;32463;48.298;11.620;2023-05-17T03:42:17;5.47;;;2.10;;
46723;SDS011;32463;48.298;11.620;2023-05-17T03:44:43;7.55;;;2.00;;
46723;SDS011;32463;48.298;11.620;2023-05-17T03:47:10;7.85;;;2.03;;
46723;SDS011;32463;48.298;11.620;2023-05-17T03:49:36;5.88;;;2.10;;
46723;SDS011;32463;48.298;11.620;2023-05-17T03:52:03;8.25;;;1.90;;
46723;SDS011;32463;48.298;11.620;2023-05-17T03:54:29;4.63;;;1.90;;
46723;SDS011;32463;48.298;11.620;2023-05-17T03:56:55;9.43;;;1.83;;
46723;SDS011;32463;48.298;11.620;2023-05-17T03:59:22;4.85;;;1.88;;
46723;SDS011;32463;48.298;11.620;2023-05-17T04:01:48;5.15;;;1.80;;
46723;SDS011;32463;48.298;11.620;2023-05-17T04:04:15;4.32;;;1.75;;
46723;SDS011;32463;48.298;11.620;2023-05-17T04:06:42;5.88;;;1.75;;
46723;SDS011;32463;48.298;11.620;2023-05-17T04:09:08;5.57;;;1.88;;
46723;SDS011;32463;48.298;11.620;2023-05-17T04:11:37;4.72;;;1.60;;
46723;SDS011;32463;48.298;11.620;2023-05-17T04:14:04;5.30;;;1.60;;
46723;SDS011;32463;48.298;11.620;2023-05-17T04:16:31;8.10;;;1.60;;
46723;SDS011;32463;48.298;11.620;2023-05-17T04:18:58;7.85;;;2.38;;
46723;SDS011;32463;48.298;11.620;2023-05-17T04:21:25;4.93;;;1.60;;
46723;SDS011;32463;48.298;11.620;2023-05-17T04:23:52;5.00;;;1.60;;
46723;SDS011;32463;48.298;11.620;2023-05-17T04:26:18;6.68;;;1.50;;
46723;SDS011;32463;48.298;11.620;2023-05-17T04:28:46;8.88;;;2.13;;
46723;SDS011;32463;48.298;11.620;2023-05-17T04:31:16;3.28;;;1.60;;
46723;SDS011;32463;48.298;11.620;2023-05-17T04:33:43;7.53;;;1.75;;
46723;SDS011;32463;48.298;11.620;2023-05-17T04:36:09;8.25;;;1.70;;
46723;SDS011;32463;48.298;11.620;2023-05-17T04:38:36;4.03;;;1.60;;
46723;SDS011;32463;48.298;11.620;2023-05-17T04:41:03;9.13;;;1.73;;
46723;SDS011;32463;48.298;11.620;2023-05-17T04:43:30;6.25;;;1.70;;
46723;SDS011;32463;48.298;11.620;2023-05-17T04:45:58;4.47;;;1.63;;
46723;SDS011;32463;48.298;11.620;2023-05-17T04:48:26;3.20;;;1.40;;
46723;SDS011;32463;48.298;11.620;2023-05-17T04:50:52;5.60;;;1.85;;
46723;SDS011;32463;48.298;11.620;2023-05-17T04:53:20;7.68;;;3.33;;
46723;SDS011;32463;48.298;11.620;2023-05-17T04:55:46;2.95;;;1.40;;
46723;SDS011;32463;48.298;11.620;2023-05-17T04:58:14;8.73;;;1.75;;
46723;SDS011;32463;48.298;11.620;2023-05-17T05:00:40;3.75;;;1.40;;
46723;SDS011;32463;48.298;11.620;2023-05-17T05:03:07;6.10;;;1.52;;
46723;SDS011;32463;48.298;11.620;2023-05-17T05:05:33;3.22;;;1.30;;
46723;SDS011;32463;48.298;11.620;2023-05-17T05:08:00;5.82;;;1.90;;
46723;SDS011;32463;48.298;11.620;2023-05-17T05:10:26;8.18;;;1.83;;
46723;SDS011;32463;48.298;11.620;2023-05-17T05:12:53;5.05;;;1.50;;
46723;SDS011;32463;48.298;11.620;2023-05-17T05:15:19;5.18;;;1.92;;
46723;SDS011;32463;48.298;11.620;2023-05-17T05:17:47;4.65;;;1.33;;
46723;SDS011;32463;48.298;11.620;2023-05-17T05:20:13;4.53;;;1.40;;
46723;SDS011;32463;48.298;11.620;2023-05-17T05:22:40;3.28;;;1.30;;
46723;SDS011;32463;48.298;11.620;2023-05-17T05:25:07;4.28;;;1.90;;
46723;SDS011;32463;48.298;11.620;2023-05-17T05:27:34;3.92;;;1.67;;
46723;SDS011;32463;48.298;11.620;2023-05-17T05:30:02;4.68;;;1.75;;
46723;SDS011;32463;48.298;11.620;2023-05-17T05:32:29;4.75;;;1.20;;
46723;SDS011;32463;48.298;11.620;2023-05-17T05:34:59;6.18;;;1.60;;
46723;SDS011;32463;48.298;11.620;2023-05-17T05:37:32;7.82;;;3.03;;
46723;SDS011;32463;48.298;11.620;2023-05-17T05:39:59;5.20;;;1.90;;
46723;SDS011;32463;48.298;11.620;2023-05-17T05:42:25;5.20;;;1.50;;
46723;SDS011;32463;48.298;11.620;2023-05-17T05:44:53;5.63;;;1.67;;
46723;SDS011;32463;48.298;11.620;2023-05-17T05:47:20;5.22;;;1.95;;
46723;SDS011;32463;48.298;11.620;2023-05-17T05:49:46;6.47;;;1.77;;
46723;SDS011;32463;48.298;11.620;2023-05-17T05:52:12;6.55;;;1.67;;
46723;SDS011;32463;48.298;11.620;2023-05-17T05:54:39;4.68;;;1.63;;
46723;SDS011;32463;48.298;11.620;2023-05-17T05:57:05;4.07;;;1.40;;
46723;SDS011;32463;48.298;11.620;2023-05-17T05:59:32;3.50;;;1.65;;
46723;SDS011;32463;48.298;11.620;2023-05-17T06:01:58;4.05;;;1.33;;
46723;SDS011;32463;48.298;11.620;2023-05-17T06:04:25;4.55;;;1.58;;
46723;SDS011;32463;48.298;11.620;2023-05-17T06:06:55;6.68;;;1.77;;
46723;SDS011;32463;48.298;11.620;2023-05-17T06:09:21;5.30;;;1.27;;
46723;SDS011;32463;48.298;11.620;2023-05-17T06:11:50;10.60;;;1.98;;
46723;SDS011;32463;48.298;11.620;2023-05-17T06:14:17;6.53;;;1.40;;
46723;SDS011;32463;48.298;11.620;2023-05-17T06:16:44;6.38;;;1.50;;
46723;SDS011;32463;48.298;11.620;2023-05-17T06:19:12;4.57;;;1.52;;
46723;SDS011;32463;48.298;11.620;2023-05-17T06:21:39;5.97;;;1.40;;
46723;SDS011;32463;48.298;11.620;2023-05-17T06:24:05;5.80;;;2.25;;
46723;SDS011;32463;48.298;11.620;2023-05-17T06:26:32;3.05;;;1.20;;
46723;SDS011;32463;48.298;11.620;2023-05-17T06:28:58;5.60;;;1.20;;
46723;SDS011;32463;48.298;11.620;2023-05-17T06:31:25;5.38;;;1.20;;
46723;SDS011;32463;48.298;11.620;2023-05-17T06:33:51;4.95;;;1.50;;
46723;SDS011;32463;48.298;11.620;2023-05-17T06:36:18;6.07;;;1.45;;
46723;SDS011;32463;48.298;11.620;2023-05-17T06:38:44;8.88;;;1.70;;
46723;SDS011;32463;48.298;11.620;2023-05-17T06:41:11;4.32;;;1.08;;
46723;SDS011;32463;48.298;11.620;2023-05-17T06:43:37;6.63;;;1.35;;
46723;SDS011;32463;48.298;11.620;2023-05-17T06:46:04;4.82;;;1.27;;
46723;SDS011;32463;48.298;11.620;2023-05-17T06:48:30;3.95;;;1.20;;
46723;SDS011;32463;48.298;11.620;2023-05-17T06:50:57;8.23;;;1.38;;
46723;SDS011;32463;48.298;11.620;2023-05-17T06:53:23;6.80;;;1.50;;
46723;SDS011;32463;48.298;11.620;2023-05-17T06:55:51;8.25;;;1.30;;
46723;SDS011;32463;48.298;11.620;2023-05-17T06:58:17;4.80;;;1.35;;
46723;SDS011;32463;48.298;11.620;2023-05-17T07:00:44;9.02;;;1.45;;
46723;SDS011;32463;48.298;11.620;2023-05-17T07:03:10;8.35;;;1.52;;
46723;SDS011;32463;48.298;11.620;2023-05-17T07:05:37;4.32;;;1.20;;
46723;SDS011;32463;48.298;11.620;2023-05-17T07:08:03;6.72;;;1.38;;
46723;SDS011;32463;48.298;11.620;2023-05-17T07:10:30;6.95;;;1.17;;
46723;SDS011;32463;48.298;11.620;2023-05-17T07:12:56;6.47;;;1.42;;
46723;SDS011;32463;48.298;11.620;2023-05-17T07:15:23;4.95;;;1.10;;
46723;SDS011;32463;48.298;11.620;2023-05-17T07:17:49;5.15;;;1.30;;
46723;SDS011;32463;48.298;11.620;2023-05-17T07:20:16;5.13;;;1.35;;
46723;SDS011;32463;48.298;11.620;2023-05-17T07:22:43;3.30;;;1.27;;
46723;SDS011;32463;48.298;11.620;2023-05-17T07:25:09;4.88;;;1.52;;
46723;SDS011;32463;48.298;11.620;2023-05-17T07:27:35;5.53;;;1.20;;
46723;SDS011;32463;48.298;11.620;2023-05-17T07:30:02;5.38;;;1.50;;
46723;SDS011;32463;48.298;11.620;2023-05-17T07:32:29;3.47;;;1.25;;
46723;SDS011;32463;48.298;11.620;2023-05-17T07:34:55;4.20;;;1.30;;
46723;SDS011;32463;48.298;11.620;2023-05-17T07:37:22;5.70;;;1.40;;
46723;SDS011;32463;48.298;11.620;2023-05-17T07:39:48;5.72;;;1.40;;
46723;SDS011;32463;48.298;11.620;2023-05-17T07:42:15;3.92;;;1.20;;
46723;SDS011;32463;48.298;11.620;2023-05-17T07:44:41;5.07;;;1.38;;
46723;SDS011;32463;48.298;11.620;2023-05-17T07:47:08;8.50;;;1.65;;
46723;SDS011;32463;48.298;11.620;2023-05-17T07:49:34;6.63;;;1.45;;
46723;SDS011;32463;48.298;11.620;2023-05-17T07:52:01;6.00;;;1.30;;
46723;SDS011;32463;48.298;11.620;2023-05-17T07:54:27;4.70;;;1.30;;
46723;SDS011;32463;48.298;11.620;2023-05-17T07:56:54;4.75;;;1.60;;
46723;SDS011;32463;48.298;11.620;2023-05-17T07:59:21;3.50;;;1.20;;
46723;SDS011;32463;48.298;11.620;2023-05-17T08:01:48;9.18;;;1.48;;
46723;SDS011;32463;48.298;11.620;2023-05-17T08:04:15;4.05;;;1.23;;
46723;SDS011;32463;48.298;11.620;2023-05-17T08:06:41;7.13;;;1.40;;
46723;SDS011;32463;48.298;11.620;2023-05-17T08:09:10;6.35;;;1.40;;
46723;SDS011;32463;48.298;11.620;2023-05-17T08:11:37;3.40;;;1.30;;
46723;SDS011;32463;48.298;11.620;2023-05-17T08:14:10;3.90;;;1.00;;
46723;SDS011;32463;48.298;11.620;2023-05-17T08:16:38;6.82;;;1.35;;
46723;SDS011;32463;48.298;11.620;2023-05-17T08:19:05;4.13;;;1.10;;
46723;SDS011;32463;48.298;11.620;2023-05-17T08:21:31;6.30;;;1.30;;
46723;SDS011;32463;48.298;11.620;2023-05-17T08:23:58;4.78;;;1.10;;
46723;SDS011;32463;48.298;11.620;2023-05-17T08:26:25;4.75;;;1.25;;
46723;SDS011;32463;48.298;11.620;2023-05-17T08:28:51;5.82;;;1.13;;
46723;SDS011;32463;48.298;11.620;2023-05-17T08:31:18;4.70;;;1.35;;
46723;SDS011;32463;48.298;11.620;2023-05-17T08:33:44;2.78;;;1.20;;
46723;SDS011;32463;48.298;11.620;2023-05-17T08:36:10;3.83;;;1.23;;
46723;SDS011;32463;48.298;11.620;2023-05-17T08:38:37;6.15;;;1.30;;
46723;SDS011;32463;48.298;11.620;2023-05-17T08:41:03;6.05;;;1.25;;
46723;SDS011;32463;48.298;11.620;2023-05-17T08:43:30;4.50;;;1.20;;
46723;SDS011;32463;48.298;11.620;2023-05-17T08:45:56;2.70;;;1.20;;
46723;SDS011;32463;48.298;11.620;2023-05-17T08:48:26;4.47;;;1.13;;
46723;SDS011;32463;48.298;11.620;2023-05-17T08:50:55;3.15;;;1.02;;
46723;SDS011;32463;48.298;11.620;2023-05-17T08:53:22;4.05;;;1.20;;
46723;SDS011;32463;48.298;11.620;2023-05-17T08:55:50;5.18;;;1.17;;
46723;SDS011;32463;48.298;11.620;2023-05-17T08:58:24;5.55;;;1.17;;
46723;SDS011;32463;48.298;11.620;2023-05-17T09:00:53;4.30;;;1.30;;
46723;SDS011;32463;48.298;11.620;2023-05-17T09:03:21;5.80;;;1.23;;
46723;SDS011;32463;48.298;11.620;2023-05-17T09:05:49;5.53;;;1.00;;
46723;SDS011;32463;48.298;11.620;2023-05-17T09:08:20;6.07;;;1.33;;
46723;SDS011;32463;48.298;11.620;2023-05-17T09:10:47;3.20;;;1.20;;
46723;SDS011;32463;48.298;11.620;2023-05-17T09:13:14;3.65;;;1.23;;
46723;SDS011;32463;48.298;11.620;2023-05-17T09:15:41;5.00;;;1.52;;
46723;SDS011;32463;48.298;11.620;2023-05-17T09:18:09;3.47;;;1.27;;
46723;SDS011;32463;48.298;11.620;2023-05-17T09:20:37;4.80;;;1.30;;
46723;SDS011;32463;48.298;11.620;2023-05-17T09:23:07;4.00;;;0.90;;
46723;SDS011;32463;48.298;11.620;2023-05-17T09:25:35;4.03;;;1.17;;
46723;SDS011;32463;48.298;11.620;2023-05-17T09:28:02;3.70;;;1.15;;
46723;SDS011;32463;48.298;11.620;2023-05-17T09:30:33;5.10;;;1.30;;
46723;SDS011;32463;48.298;11.620;2023-05-17T09:33:08;3.58;;;1.23;;
46723;SDS011;32463;48.298;11.620;2023-05-17T09:35:36;4.32;;;1.00;;
46723;SDS011;32463;48.298;11.620;2023-05-17T09:38:07;8.07;;;1.20;;
46723;SDS011;32463;48.298;11.620;2023-05-17T09:40:44;9.10;;;1.45;;
46723;SDS011;32463;48.298;11.620;2023-05-17T09:43:13;3.60;;;1.17;;
46723;SDS011;32463;48.298;11.620;2023-05-17T09:45:41;2.85;;;1.20;;
46723;SDS011;32463;48.298;11.620;2023-05-17T09:48:17;4.82;;;1.40;;
46723;SDS011;32463;48.298;11.620;2023-05-17T09:50:46;5.68;;;1.33;;
46723;SDS011;32463;48.298;11.620;2023-05-17T09:53:30;5.05;;;1.52;;
46723;SDS011;32463;48.298;11.620;2023-05-17T09:56:03;3.03;;;1.15;;
46723;SDS011;32463;48.298;11.620;2023-05-17T09:58:31;3.95;;;1.40;;
46723;SDS011;32463;48.298;11.620;2023-05-17T10:00:59;3.92;;;1.27;;
46723;SDS011;32463;48.298;11.620;2023-05-17T10:03:31;4.60;;;1.33;;
46723;SDS011;32463;48.298;11.620;2023-05-17T10:06:06;3.67;;;1.33;;
46723;SDS011;32463;48.298;11.620;2023-05-17T10:08:34;3.88;;;1.40;;
46723;SDS011;32463;48.298;11.620;2023-05-17T10:11:07;5.28;;;1.20;;
46723;SDS011;32463;48.298;11.620;2023-05-17T10:13:38;8.98;;;1.58;;
46723;SDS011;32463;48.298;11.620;2023-05-17T10:16:09;3.45;;;1.40;;
46723;SDS011;32463;48.298;11.620;2023-05-17T10:18:37;3.38;;;1.20;;
46723;SDS011;32463;48.298;11.620;2023-05-17T10:21:08;3.42;;;1.23;;
46723;SDS011;32463;48.298;11.620;2023-05-17T10:23:35;4.93;;;1.20;;
46723;SDS011;32463;48.298;11.620;2023-05-17T10:26:04;4.00;;;1.30;;
46723;SDS011;32463;48.298;11.620;2023-05-17T10:28:31;4.65;;;1.30;;
46723;SDS011;32463;48.298;11.620;2023-05-17T10:30:58;4.75;;;1.15;;
46723;SDS011;32463;48.298;11.620;2023-05-17T10:33:26;4.47;;;1.20;;
46723;SDS011;32463;48.298;11.620;2023-05-17T10:35:52;6.82;;;1.73;;
46723;SDS011;32463;48.298;11.620;2023-05-17T10:38:20;4.47;;;1.08;;
46723;SDS011;32463;48.298;11.620;2023-05-17T10:40:48;5.82;;;1.30;;
46723;SDS011;32463;48.298;11.620;2023-05-17T10:43:17;2.80;;;1.10;;
46723;SDS011;32463;48.298;11.620;2023-05-17T10:45:44;2.78;;;1.10;;
46723;SDS011;32463;48.298;11.620;2023-05-17T10:48:13;4.13;;;0.95;;
46723;SDS011;32463;48.298;11.620;2023-05-17T10:50:44;2.75;;;1.30;;
46723;SDS011;32463;48.298;11.620;2023-05-17T10:53:12;3.25;;;1.08;;
46723;SDS011;32463;48.298;11.620;2023-05-17T10:55:39;3.30;;;1.10;;
46723;SDS011;32463;48.298;11.620;2023-05-17T10:58:17;3.22;;;1.40;;
46723;SDS011;32463;48.298;11.620;2023-05-17T11:00:48;3.85;;;1.30;;
46723;SDS011;32463;48.298;11.620;2023-05-17T11:05:44;3.13;;;1.13;;
46723;SDS011;32463;48.298;11.620;2023-05-17T11:08:43;3.05;;;1.35;;
46723;SDS011;32463;48.298;11.620;2023-05-17T11:11:18;7.38;;;2.25;;
46723;SDS011;32463;48.298;11.620;2023-05-17T11:13:54;5.55;;;1.73;;
46723;SDS011;32463;48.298;11.620;2023-05-17T11:16:33;3.80;;;1.42;;
46723;SDS011;32463;48.298;11.620;2023-05-17T11:19:08;3.78;;;1.45;;
46723;SDS011;32463;48.298;11.620;2023-05-17T11:21:46;2.45;;;1.25;;
46723;SDS011;32463;48.298;11.620;2023-05-17T11:24:18;3.95;;;1.60;;
46723;SDS011;32463;48.298;11.620;2023-05-17T11:26:51;3.22;;;1.80;;
46723;SDS011;32463;48.298;11.620;2023-05-17T11:29:20;7.03;;;2.03;;
46723;SDS011;32463;48.298;11.620;2023-05-17T11:31:54;5.10;;;1.85;;
46723;SDS011;32463;48.298;11.620;2023-05-17T11:34:21;4.15;;;1.98;;
46723;SDS011;32463;48.298;11.620;2023-05-17T11:36:50;3.33;;;1.52;;
46723;SDS011;32463;48.298;11.620;2023-05-17T11:39:18;5.68;;;2.03;;
46723;SDS011;32463;48.298;11.620;2023-05-17T11:41:50;3.80;;;1.70;;
46723;SDS011;32463;48.298;11.620;2023-05-17T11:44:29;4.35;;;1.80;;
46723;SDS011;32463;48.298;11.620;2023-05-17T11:47:03;4.20;;;1.73;;
46723;SDS011;32463;48.298;11.620;2023-05-17T11:49:35;4.32;;;1.88;;
46723;SDS011;32463;48.298;11.620;2023-05-17T11:52:06;4.38;;;1.83;;
46723;SDS011;32463;48.298;11.620;2023-05-17T11:54:33;4.07;;;1.60;;
46723;SDS011;32463;48.298;11.620;2023-05-17T11:57:00;4.85;;;2.00;;
46723;SDS011;32463;48.298;11.620;2023-05-17T11:59:27;4.07;;;1.80;;
46723;SDS011;32463;48.298;11.620;2023-05-17T12:01:54;4.60;;;1.83;;
46723;SDS011;32463;48.298;11.620;2023-05-17T12:04:24;5.40;;;2.30;;
46723;SDS011;32463;48.298;11.620;2023-05-17T12:06:51;6.93;;;2.33;;
46723;SDS011;32463;48.298;11.620;2023-05-17T12:09:19;5.63;;;2.20;;
46723;SDS011;32463;48.298;11.620;2023-05-17T12:11:47;4.57;;;2.28;;
46723;SDS011;32463;48.298;11.620;2023-05-17T12:14:14;7.25;;;2.03;;
46723;SDS011;32463;48.298;11.620;2023-05-17T12:16:51;4.18;;;2.05;;
46723;SDS011;32463;48.298;11.620;2023-05-17T12:19:20;7.95;;;1.80;;
46723;SDS011;32463;48.298;11.620;2023-05-17T12:21:49;4.93;;;1.80;;
46723;SDS011;32463;48.298;11.620;2023-05-17T12:24:16;3.95;;;2.13;;
46723;SDS011;32463;48.298;11.620;2023-05-17T12:26:43;3.58;;;1.80;;
46723;SDS011;32463;48.298;11.620;2023-05-17T12:29:11;3.88;;;1.90;;
46723;SDS011;32463;48.298;11.620;2023-05-17T12:31:49;3.45;;;1.98;;
46723;SDS011;32463;48.298;11.620;2023-05-17T12:34:17;3.85;;;2.15;;
46723;SDS011;32463;48.298;11.620;2023-05-17T12:36:45;3.47;;;1.90;;
46723;SDS011;32463;48.298;11.620;2023-05-17T12:39:12;4.95;;;2.00;;
46723;SDS011;32463;48.298;11.620;2023-05-17T12:41:42;5.40;;;2.15;;
46723;SDS011;32463;48.298;11.620;2023-05-17T12:44:11;4.40;;;2.00;;
46723;SDS011;32463;48.298;11.620;2023-05-17T12:46:39;5.32;;;1.75;;
46723;SDS011;32463;48.298;11.620;2023-05-17T12:49:08;6.10;;;2.60;;
46723;SDS011;32463;48.298;11.620;2023-05-17T12:51:39;6.78;;;2.38;;
46723;SDS011;32463;48.298;11.620;2023-05-17T12:54:07;6.25;;;2.30;;
46723;SDS011;32463;48.298;11.620;2023-05-17T12:56:36;5.43;;;2.10;;
46723;SDS011;32463;48.298;11.620;2023-05-17T13:01:37;4.63;;;2.00;;
46723;SDS011;32463;48.298;11.620;2023-05-17T13:04:04;4.10;;;1.85;;
46723;SDS011;32463;48.298;11.620;2023-05-17T13:06:44;4.55;;;2.03;;
46723;SDS011;32463;48.298;11.620;2023-05-17T13:09:16;5.05;;;2.05;;
46723;SDS011;32463;48.298;11.620;2023-05-17T13:11:49;6.10;;;2.20;;
46723;SDS011;32463;48.298;11.620;2023-05-17T13:14:38;7.38;;;2.33;;
46723;SDS011;32463;48.298;11.620;2023-05-17T13:17:07;6.57;;;2.00;;
46723;SDS011;32463;48.298;11.620;2023-05-17T13:19:35;7.80;;;2.40;;
46723;SDS011;32463;48.298;11.620;2023-05-17T13:22:03;5.32;;;2.33;;
46723;SDS011;32463;48.298;11.620;2023-05-17T13:24:34;5.03;;;2.33;;
46723;SDS011;32463;48.298;11.620;2023-05-17T13:27:02;4.13;;;2.10;;
46723;SDS011;32463;48.298;11.620;2023-05-17T13:29:29;4.57;;;2.20;;
46723;SDS011;32463;48.298;11.620;2023-05-17T13:31:58;4.55;;;2.10;;
46723;SDS011;32463;48.298;11.620;2023-05-17T13:34:25;7.90;;;2.40;;
46723;SDS011;32463;48.298;11.620;2023-05-17T13:36:51;5.22;;;2.05;;
46723;SDS011;32463;48.298;11.620;2023-05-17T13:39:18;6.43;;;2.00;;
46723;SDS011;32463;48.298;11.620;2023-05-17T13:41:45;5.20;;;2.45;;
46723;SDS011;32463;48.298;11.620;2023-05-17T13:44:12;5.25;;;2.00;;
46723;SDS011;32463;48.298;11.620;2023-05-17T13:46:38;5.38;;;2.15;;
46723;SDS011;32463;48.298;11.620;2023-05-17T13:49:05;4.68;;;1.90;;
46723;SDS011;32463;48.298;11.620;2023-05-17T13:51:34;5.05;;;1.83;;
46723;SDS011;32463;48.298;11.620;2023-05-17T13:54:03;5.90;;;2.40;;
46723;SDS011;32463;48.298;11.620;2023-05-17T13:56:30;4.53;;;2.08;;
46723;SDS011;32463;48.298;11.620;2023-05-17T13:58:56;4.25;;;2.00;;
46723;SDS011;32463;48.298;11.620;2023-05-17T14:01:23;3.70;;;1.95;;
46723;SDS011;32463;48.298;11.620;2023-05-17T14:03:49;4.53;;;2.20;;
46723;SDS011;32463;48.298;11.620;2023-05-17T14:06:16;5.20;;;2.45;;
46723;SDS011;32463;48.298;11.620;2023-05-17T14:08:42;5.47;;;2.33;;
46723;SDS011;32463;48.298;11.620;2023-05-17T14:11:10;3.97;;;2.25;;
46723;SDS011;32463;48.298;11.620;2023-05-17T14:13:37;6.68;;;2.40;;
46723;SDS011;32463;48.298;11.620;2023-05-17T14:16:04;5.97;;;2.50;;
46723;SDS011;32463;48.298;11.620;2023-05-17T14:18:31;5.53;;;2.28;;
46723;SDS011;32463;48.298;11.620;2023-05-17T14:20:57;4.63;;;2.30;;
46723;SDS011;32463;48.298;11.620;2023-05-17T14:23:25;5.15;;;2.47;;
46723;SDS011;32463;48.298;11.620;2023-05-17T14:25:51;5.60;;;2.42;;
46723;SDS011;32463;48.298;11.620;2023-05-17T14:28:17;7.55;;;2.55;;
46723;SDS011;32463;48.298;11.620;2023-05-17T14:30:44;4.55;;;2.30;;
46723;SDS011;32463;48.298;11.620;2023-05-17T14:33:11;6.65;;;2.78;;
46723;SDS011;32463;48.298;11.620;2023-05-17T14:35:37;5.72;;;2.60;;
46723;SDS011;32463;48.298;11.620;2023-05-17T14:38:04;6.60;;;2.47;;
46723;SDS011;32463;48.298;11.620;2023-05-17T14:40:31;4.60;;;2.30;;
46723;SDS011;32463;48.298;11.620;2023-05-17T14:42:57;6.95;;;3.78;;
46723;SDS011;32463;48.298;11.620;2023-05-17T14:45:24;9.23;;;2.85;;
46723;SDS011;32463;48.298;11.620;2023-05-17T14:47:50;9.43;;;2.95;;
46723;SDS011;32463;48.298;11.620;2023-05-17T14:50:17;4.95;;;2.60;;
46723;SDS011;32463;48.298;11.620;2023-05-17T14:52:43;6.30;;;2.80;;
46723;SDS011;32463;48.298;11.620;2023-05-17T14:55:10;6.32;;;2.78;;
46723;SDS011;32463;48.298;11.620;2023-05-17T14:57:40;8.82;;;3.30;;
46723;SDS011;32463;48.298;11.620;2023-05-17T15:00:07;6.97;;;2.90;;